< < Back
Terminal Aerodrome Forecast


Current Version              Previous Versions:   1  2  3  4  5  6  7  8  9  

Terminal Aerodrome Forecast

864
FTUS42 KJAX 121551 AAB
TAFGNV
TAF AMD
KGNV 121551Z 1216/1312 24014G22KT P6SM FEW040 SCT250
     FM130000 24009KT P6SM SCT250
     FM130700 31006KT P6SM SCT040=



Latest METAR

298
SAUS70 KWBC 130200 RRD
MTRGNV
METAR KGNV 130153Z 26013KT 10SM CLR 16/13 A3016 RMK AO2 SLP212
T01610133


USA.gov is the U.S. government's official web portal to all federal, state and local government web resources and services.